M C B H Kaneohe Bay, Hawaii
Current Conditions -  °F | °C
As of 3:57 AM on Monday 26 Jan 2015 (Local Time) from PHNG Reporting Station
Overcast Overcast  
Wind Chill: 71°   Ceiling: 5000
Heat Index: 71°   Visibility: NA
Dew Point: 63°   Wind: 13mph
Humidity: 75%   Direction: 50°NE
Pressure: 29.96"   Gusts: 21mph
Location:  21.4527°N, 157.772°W
Report Text: PHNG 261357Z 05011G18KT OVC050 22/17 A2996 RMK AO2 RAB02E16 SLP139 P0000 T02170172 $
Loading
Personal Weather Stations






























Interactive Weather Map New forecast layout! Learn more

10-Day Weather Forecast

Advertisements
Track Severe Weather on mobile